Time;durP1;ratioP1;P1;durP2;ratioP2;P2;SDS_P1;SDS_P2;PMS_P1;PMS_P2;Temp;Humidity;BMP_temperature;BMP_pressure;BME280_temperature;BME280_humidity;BME280_pressure;Samples;Min_cycle;Max_cycle;Signal;HPM_P1;HPM_P2
2021/11/17 02:25:50;;;;;;;31.38;15.73;;;;;;;6.35;nan;100962.09;4991489;28;20257;-75
2021/11/17 02:28:39;;;;;;;26.85;13.75;;;;;;;6.35;nan;100959.47;4971571;28;20038;-76
2021/11/17 02:31:08;;;;;;;30.20;14.70;;;;;;;6.37;nan;100965.44;4970680;28;20307;-75
2021/11/17 02:33:52;;;;;;;32.80;15.27;;;;;;;6.39;nan;100958.28;4967112;28;20448;-76
2021/11/17 02:36:39;;;;;;;32.75;16.15;;;;;;;6.40;nan;100954.69;4982451;28;20035;-76
2021/11/17 02:39:43;;;;;;;30.48;15.15;;;;;;;6.32;nan;100954.44;4990822;28;20157;-75
2021/11/17 02:42:36;;;;;;;34.38;16.25;;;;;;;6.36;nan;100961.13;4967953;28;20072;-75
2021/11/17 02:45:05;;;;;;;30.63;14.88;;;;;;;6.32;nan;100957.91;5003603;28;20054;-75
2021/11/17 02:47:42;;;;;;;32.30;15.75;;;;;;;6.30;nan;100956.34;4989649;28;20840;-75
2021/11/17 02:50:30;;;;;;;35.13;16.90;;;;;;;6.29;nan;100960.75;4990767;28;20041;-75
2021/11/17 02:53:11;;;;;;;30.80;14.77;;;;;;;6.29;nan;100949.41;4989289;28;20464;-75
2021/11/17 02:55:48;;;;;;;32.33;15.60;;;;;;;6.28;nan;100953.00;4988742;28;20286;-75
2021/11/17 02:58:13;;;;;;;32.30;16.20;;;;;;;6.29;nan;100947.63;4988375;28;20090;-75
2021/11/17 03:00:44;;;;;;;28.55;14.65;;;;;;;6.27;nan;100946.91;4990995;28;20126;-76
2021/11/17 03:03:31;;;;;;;32.30;16.08;;;;;;;6.25;nan;100948.81;4989425;28;20038;-75
2021/11/17 03:06:29;;;;;;;30.63;15.57;;;;;;;6.23;nan;100950.69;4990388;28;20137;-75
2021/11/17 03:09:20;;;;;;;30.85;15.05;;;;;;;6.27;nan;100948.66;4989219;28;20046;-76
2021/11/17 03:12:11;;;;;;;33.15;16.17;;;;;;;6.24;nan;100952.38;4989028;28;20066;-75
2021/11/17 03:14:58;;;;;;;32.15;16.60;;;;;;;6.26;nan;100942.59;4937158;28;20041;-75
2021/11/17 03:17:51;;;;;;;33.38;16.95;;;;;;;6.28;nan;100937.22;4989246;28;20066;-75
2021/11/17 03:20:22;;;;;;;38.55;18.20;;;;;;;6.26;nan;100934.72;4989209;28;20038;-75
2021/11/17 03:22:47;;;;;;;41.22;19.10;;;;;;;6.26;nan;100939.97;4989480;28;20045;-75
2021/11/17 03:25:46;;;;;;;41.37;18.90;;;;;;;6.28;nan;100943.31;4989584;28;20046;-75
2021/11/17 03:28:23;;;;;;;34.10;16.67;;;;;;;6.21;nan;100942.09;4989382;28;20285;-75
2021/11/17 03:31:07;;;;;;;37.03;18.38;;;;;;;6.22;nan;100948.19;4989702;28;20495;-75
2021/11/17 03:33:57;;;;;;;36.75;17.90;;;;;;;6.23;nan;100942.00;4988806;28;20097;-75
2021/11/17 03:37:10;;;;;;;37.72;17.77;;;;;;;6.19;nan;100948.41;4984619;28;20502;-75
2021/11/17 03:40:02;;;;;;;33.28;16.67;;;;;;;6.16;nan;100947.69;4977422;28;20053;-75
2021/11/17 03:43:05;;;;;;;33.08;15.77;;;;;;;6.14;nan;100946.13;4984187;28;20038;-75
2021/11/17 03:45:58;;;;;;;31.50;15.32;;;;;;;6.15;nan;100953.06;4987827;28;20038;-75
2021/11/17 03:48:30;;;;;;;30.02;15.05;;;;;;;6.16;nan;100947.69;4988898;28;20049;-75
2021/11/17 03:50:55;;;;;;;;;;;;;;;6.14;nan;100960.09;4992749;28;20423;-75
2021/11/17 03:53:33;;;;;;;26.85;13.63;;;;;;;6.16;nan;100952.94;4988459;28;19918;-75
2021/11/17 03:56:01;;;;;;;34.78;15.68;;;;;;;6.16;nan;100957.34;4988300;28;20038;-75
2021/11/17 03:58:59;;;;;;;30.10;15.57;;;;;;;6.16;nan;100952.94;4995236;28;20034;-75
2021/11/17 04:02:13;;;;;;;38.95;18.88;;;;;;;6.16;nan;100959.97;4986425;28;20042;-75
2021/11/17 04:04:39;;;;;;;34.70;17.83;;;;;;;6.13;nan;100954.97;4989196;28;20047;-75
2021/11/17 04:07:35;;;;;;;29.40;15.53;;;;;;;6.09;nan;100953.50;4988897;28;20581;-75
2021/11/17 04:10:14;;;;;;;27.27;14.05;;;;;;;6.07;nan;100950.97;4988562;28;20380;-75
2021/11/17 04:12:54;;;;;;;28.65;14.85;;;;;;;6.06;nan;100954.56;4985967;28;20150;-75
2021/11/17 04:15:48;;;;;;;23.65;13.60;;;;;;;6.10;nan;100961.28;4989894;28;20494;-75
2021/11/17 04:18:27;;;;;;;30.70;15.65;;;;;;;6.10;nan;100963.91;4987964;28;20522;-75
2021/11/17 04:21:19;;;;;;;36.35;17.80;;;;;;;6.13;nan;100965.47;4989709;28;20249;-75
2021/11/17 04:24:03;;;;;;;31.50;15.50;;;;;;;6.08;nan;100965.78;4989573;28;20038;-75
2021/11/17 04:26:37;;;;;;;33.75;16.58;;;;;;;6.05;nan;100968.63;4989595;28;20042;-76
2021/11/17 04:29:16;;;;;;;33.95;18.70;;;;;;;5.93;nan;100969.50;4989866;28;20073;-76
2021/11/17 04:31:54;;;;;;;31.42;16.48;;;;;;;5.96;nan;100964.06;4969131;28;20038;-76
2021/11/17 04:34:57;;;;;;;30.48;15.85;;;;;;;6.04;nan;100966.13;4989226;28;20408;-76
2021/11/17 04:37:29;;;;;;;27.60;14.88;;;;;;;6.06;nan;100969.50;4984959;28;20113;-76
2021/11/17 04:40:03;;;;;;;27.90;14.50;;;;;;;6.05;nan;100968.63;4994804;28;20440;-76
2021/11/17 04:42:43;;;;;;;34.15;16.58;;;;;;;6.10;nan;100969.16;4992196;28;20124;-76
2021/11/17 04:45:14;;;;;;;29.15;15.18;;;;;;;6.05;nan;100963.38;4991849;28;20070;-76
2021/11/17 04:47:58;;;;;;;22.73;13.02;;;;;;;6.10;nan;100970.91;4992656;28;20040;-76
2021/11/17 04:50:44;;;;;;;29.88;15.60;;;;;;;6.10;nan;100976.16;4992992;28;20035;-76
2021/11/17 04:53:15;;;;;;;29.30;15.77;;;;;;;6.03;nan;100973.19;4991731;28;20577;-76
2021/11/17 04:55:57;;;;;;;28.15;15.13;;;;;;;6.09;nan;100980.59;4992465;28;20042;-76
2021/11/17 04:58:40;;;;;;;27.27;14.27;;;;;;;6.08;nan;100981.56;5001872;28;20038;-76
2021/11/17 05:01:34;;;;;;;28.75;14.85;;;;;;;6.08;nan;100976.31;4991306;28;20457;-76
2021/11/17 05:04:06;;;;;;;27.25;14.43;;;;;;;6.07;nan;100984.28;4992811;28;20026;-76
2021/11/17 05:07:14;;;;;;;28.65;14.38;;;;;;;6.02;nan;100979.34;4992325;28;20034;-77
2021/11/17 05:09:55;;;;;;;28.15;14.35;;;;;;;5.99;nan;100987.47;4992768;28;20041;-76
2021/11/17 05:12:33;;;;;;;27.45;14.60;;;;;;;6.02;nan;100986.41;4986913;28;20026;-76
2021/11/17 05:15:01;;;;;;;28.45;14.63;;;;;;;5.98;nan;100985.78;4973419;28;20515;-76
2021/11/17 05:17:33;;;;;;;27.88;14.48;;;;;;;6.00;nan;100990.91;4995077;28;20046;-76
2021/11/17 05:20:05;;;;;;;26.65;14.65;;;;;;;5.91;nan;100995.00;4992304;28;20043;-76
2021/11/17 05:22:42;;;;;;;22.85;13.30;;;;;;;5.92;nan;101005.41;4990648;28;20037;-76
2021/11/17 05:25:45;;;;;;;23.63;12.15;;;;;;;6.00;nan;101004.88;4991490;28;20105;-76
2021/11/17 05:28:39;;;;;;;25.85;13.57;;;;;;;5.92;nan;101010.66;4991204;28;20035;-76
2021/11/17 05:31:29;;;;;;;23.92;12.57;;;;;;;5.97;nan;101002.47;4991107;28;20062;-76
2021/11/17 05:34:24;;;;;;;24.65;13.18;;;;;;;5.93;nan;101006.22;4991761;28;20476;-76
2021/11/17 05:37:11;;;;;;;23.55;12.65;;;;;;;5.94;nan;101006.16;4992875;28;20046;-76
2021/11/17 05:39:45;;;;;;;19.38;11.07;;;;;;;5.89;nan;101002.19;4992342;28;20038;-76
2021/11/17 05:42:19;;;;;;;18.70;10.23;;;;;;;5.89;nan;101003.00;4991883;28;20492;-76
2021/11/17 05:44:54;;;;;;;16.20;8.77;;;;;;;5.86;nan;100999.75;4991826;28;20039;-75
2021/11/17 05:47:31;;;;;;;15.00;8.13;;;;;;;5.86;nan;101007.63;4990865;28;20068;-76
2021/11/17 05:50:34;;;;;;;13.02;6.70;;;;;;;5.82;nan;101007.00;4999833;28;20035;-76
2021/11/17 05:53:42;;;;;;;9.50;5.75;;;;;;;5.78;nan;101007.34;4991996;28;20030;-76
2021/11/17 05:56:16;;;;;;;9.75;5.95;;;;;;;5.75;nan;101001.34;4991062;28;20046;-75
2021/11/17 05:59:25;;;;;;;9.60;5.63;;;;;;;5.73;nan;101005.88;4991497;28;20053;-76
2021/11/17 06:01:59;;;;;;;11.25;6.38;;;;;;;5.74;nan;101011.97;4936620;28;20043;-76
2021/11/17 06:04:24;;;;;;;10.38;5.32;;;;;;;5.78;nan;101008.19;4990379;28;20532;-76
2021/11/17 06:06:49;;;;;;;9.03;5.40;;;;;;;5.77;nan;101024.03;4989685;28;20205;-76
2021/11/17 06:09:14;;;;;;;9.33;5.40;;;;;;;5.76;nan;101023.19;4991821;28;20038;-76
2021/11/17 06:11:48;;;;;;;10.23;5.20;;;;;;;5.79;nan;101024.75;4987374;28;20073;-76
2021/11/17 06:14:21;;;;;;;9.77;5.80;;;;;;;5.74;nan;101020.69;4991499;28;20274;-75
2021/11/17 06:16:51;;;;;;;10.45;5.80;;;;;;;5.73;nan;101020.78;4992225;28;20122;-76
2021/11/17 06:19:22;;;;;;;10.98;5.70;;;;;;;5.58;nan;101027.09;4991670;28;20030;-76
2021/11/17 06:21:49;;;;;;;9.05;5.40;;;;;;;5.63;nan;101031.09;4990241;28;20041;-76
2021/11/17 06:24:18;;;;;;;9.60;5.40;;;;;;;5.66;nan;101040.53;4988440;28;20130;-76
2021/11/17 06:26:45;;;;;;;8.13;5.25;;;;;;;5.65;nan;101034.44;4996949;28;20030;-76
2021/11/17 06:29:17;;;;;;;8.95;5.07;;;;;;;5.63;nan;101038.13;4990546;28;20092;-76
2021/11/17 06:31:43;;;;;;;8.02;4.93;;;;;;;5.57;nan;101044.63;4998634;28;20491;-76
2021/11/17 06:34:29;;;;;;;7.80;4.68;;;;;;;5.61;nan;101053.97;4990332;28;20085;-76
2021/11/17 06:36:56;;;;;;;9.13;4.93;;;;;;;5.60;nan;101056.69;4990707;28;20050;-76
2021/11/17 06:39:23;;;;;;;7.93;4.72;;;;;;;5.58;nan;101056.81;4989210;28;20049;-76
2021/11/17 06:41:48;;;;;;;7.53;5.13;;;;;;;5.59;nan;101061.09;4989933;28;20027;-75
2021/11/17 06:44:13;;;;;;;7.82;4.78;;;;;;;5.60;nan;101061.94;4989673;28;20500;-78
2021/11/17 06:46:39;;;;;;;6.60;4.30;;;;;;;5.63;nan;101064.38;4990365;28;20304;-75
2021/11/17 06:49:04;;;;;;;8.00;4.78;;;;;;;5.62;nan;101068.75;4990587;28;20034;-75
2021/11/17 06:51:30;;;;;;;8.75;4.90;;;;;;;5.61;nan;101077.59;4989851;28;20037;-74
2021/11/17 06:53:55;;;;;;;7.85;4.60;;;;;;;5.63;nan;101069.63;4988281;28;20109;-75
2021/11/17 06:56:21;;;;;;;6.80;4.15;;;;;;;5.62;nan;101081.03;4989573;28;20121;-77
2021/11/17 06:58:46;;;;;;;7.47;4.72;;;;;;;5.63;nan;101083.56;4989631;28;20035;-77
2021/11/17 07:01:11;;;;;;;7.68;5.13;;;;;;;5.62;nan;101083.66;4987428;28;20041;-77
2021/11/17 07:03:37;;;;;;;8.00;4.63;;;;;;;5.59;nan;101094.38;4989991;28;20073;-76
2021/11/17 07:06:03;;;;;;;8.65;4.90;;;;;;;5.60;nan;101094.28;4988391;28;20061;-75
2021/11/17 07:08:28;;;;;;;7.90;4.80;;;;;;;5.60;nan;101093.41;4989521;28;20034;-78
2021/11/17 07:10:54;;;;;;;8.82;5.35;;;;;;;5.57;nan;101094.47;4990458;28;20030;-76
2021/11/17 07:13:19;;;;;;;10.15;5.30;;;;;;;5.59;nan;101097.81;4989619;28;20030;-77
2021/11/17 07:15:45;;;;;;;8.23;5.65;;;;;;;5.54;nan;101095.53;4993317;28;20078;-76
2021/11/17 07:18:10;;;;;;;9.20;5.45;;;;;;;5.55;nan;101106.84;4984208;28;20039;-77
2021/11/17 07:20:37;;;;;;;8.20;5.22;;;;;;;5.56;nan;101112.97;4990842;28;20120;-77
2021/11/17 07:23:04;;;;;;;8.68;5.60;;;;;;;5.58;nan;101104.03;4989950;28;20061;-77
2021/11/17 07:25:30;;;;;;;9.25;5.78;;;;;;;5.57;nan;101117.25;4987821;28;20047;-75
2021/11/17 07:27:57;;;;;;;9.15;5.78;;;;;;;5.54;nan;101118.28;4991271;28;20113;-75
2021/11/17 07:30:26;;;;;;;7.78;5.68;;;;;;;5.57;nan;101112.00;4989845;28;20125;-76
2021/11/17 07:32:52;;;;;;;8.60;5.78;;;;;;;5.57;nan;101118.06;4950464;28;1111938;-75
2021/11/17 07:35:20;;;;;;;7.20;4.93;;;;;;;5.54;nan;101118.28;4997583;28;20027;-75
2021/11/17 07:37:45;;;;;;;9.45;5.57;;;;;;;5.55;nan;101122.59;4991124;28;20459;-75
2021/11/17 07:40:12;;;;;;;8.57;5.70;;;;;;;5.58;nan;101122.41;4995891;28;20038;-75
2021/11/17 07:42:37;;;;;;;8.52;6.07;;;;;;;5.58;nan;101124.16;4990841;28;20262;-75
2021/11/17 07:45:05;;;;;;;9.13;6.07;;;;;;;5.56;nan;101128.69;4992716;28;20328;-75
2021/11/17 07:47:30;;;;;;;8.05;5.70;;;;;;;5.53;nan;101132.38;4994914;28;20662;-75
2021/11/17 07:49:55;;;;;;;8.70;5.60;;;;;;;5.61;nan;101132.66;4996053;28;20087;-74
2021/11/17 07:52:21;;;;;;;8.45;5.90;;;;;;;5.62;nan;101133.50;4989998;28;20057;-75
2021/11/17 07:54:46;;;;;;;7.90;5.50;;;;;;;5.69;nan;101134.75;4990444;28;20165;-75
2021/11/17 07:57:11;;;;;;;8.43;5.80;;;;;;;5.67;nan;101134.03;4989112;28;20058;-75
2021/11/17 07:59:39;;;;;;;8.85;5.72;;;;;;;5.65;nan;101130.66;4989248;28;20046;-75
2021/11/17 08:02:10;;;;;;;8.73;5.45;;;;;;;5.64;nan;101131.63;4990402;28;20046;-75
2021/11/17 08:04:38;;;;;;;6.80;4.80;;;;;;;5.68;nan;101133.94;4990773;28;20050;-75
2021/11/17 08:07:08;;;;;;;9.15;5.57;;;;;;;5.71;nan;101138.97;4991006;28;20065;-77
2021/11/17 08:09:34;;;;;;;6.72;5.05;;;;;;;5.78;nan;101143.81;4991976;28;20407;-75
2021/11/17 08:11:59;;;;;;;7.53;5.18;;;;;;;5.73;nan;101141.50;4993421;28;20034;-76
2021/11/17 08:14:24;;;;;;;7.20;5.28;;;;;;;5.75;nan;101144.84;4999411;28;20045;-75
2021/11/17 08:16:50;;;;;;;8.23;5.32;;;;;;;5.74;nan;101145.78;4999262;28;20074;-75
2021/11/17 08:19:15;;;;;;;7.85;4.70;;;;;;;5.73;nan;101149.38;4995837;28;20080;-75
2021/11/17 08:21:41;;;;;;;6.10;4.63;;;;;;;5.73;nan;101147.56;4997238;28;20524;-75
2021/11/17 08:24:06;;;;;;;7.47;5.03;;;;;;;5.76;nan;101141.28;4995311;28;20039;-77
2021/11/17 08:26:31;;;;;;;7.30;4.63;;;;;;;5.80;nan;101140.13;4995856;28;20056;-77
2021/11/17 08:28:57;;;;;;;7.20;4.97;;;;;;;5.84;nan;101144.22;4995901;28;20046;-77
2021/11/17 08:31:24;;;;;;;7.38;5.00;;;;;;;5.89;nan;101138.66;4995935;28;20054;-77
2021/11/17 08:33:51;;;;;;;6.53;4.95;;;;;;;5.95;nan;101141.69;4996066;28;20038;-77
2021/11/17 08:36:16;;;;;;;6.57;4.68;;;;;;;5.96;nan;101145.19;4994970;28;20500;-77
2021/11/17 08:38:43;;;;;;;5.68;4.20;;;;;;;6.04;nan;101150.75;4995972;28;20030;-77
2021/11/17 08:41:11;;;;;;;6.47;4.18;;;;;;;6.12;nan;101158.06;4996085;28;20026;-77
2021/11/17 08:43:39;;;;;;;6.45;4.07;;;;;;;6.20;nan;101149.66;4994716;28;20500;-77
2021/11/17 08:46:04;;;;;;;6.45;3.90;;;;;;;6.24;nan;101156.38;4995627;28;20054;-77
2021/11/17 08:48:32;;;;;;;6.70;4.05;;;;;;;6.19;nan;101151.44;4995708;28;20121;-76
2021/11/17 08:51:00;;;;;;;6.05;3.90;;;;;;;6.21;nan;101159.22;5000604;28;20098;-76
2021/11/17 08:53:29;;;;;;;6.22;4.10;;;;;;;6.16;nan;101163.00;4994265;28;20034;-76
2021/11/17 08:55:55;;;;;;;7.85;3.97;;;;;;;6.15;nan;101174.47;4994356;28;20030;-76
2021/11/17 08:58:24;;;;;;;6.05;4.00;;;;;;;6.12;nan;101174.66;4993033;28;20589;-76
2021/11/17 09:00:52;;;;;;;7.45;4.18;;;;;;;6.10;nan;101175.72;4994219;28;20026;-76
2021/11/17 09:03:18;;;;;;;5.68;3.80;;;;;;;6.11;nan;101178.25;4993954;28;20030;-76
2021/11/17 09:05:47;;;;;;;5.00;3.63;;;;;;;6.10;nan;101179.19;4993986;28;20054;-76
2021/11/17 09:08:14;;;;;;;5.75;3.75;;;;;;;6.04;nan;101181.41;4993301;28;20399;-76
2021/11/17 09:10:43;;;;;;;6.72;4.22;;;;;;;6.01;nan;101182.47;4994491;28;20023;-76
2021/11/17 09:13:09;;;;;;;7.50;4.00;;;;;;;5.91;nan;101176.97;4993780;28;20347;-76
2021/11/17 09:15:38;;;;;;;6.20;3.40;;;;;;;5.84;nan;101174.84;4995653;28;20030;-76
2021/11/17 09:18:05;;;;;;;5.65;3.42;;;;;;;5.93;nan;101175.09;4999177;28;20399;-77
2021/11/17 09:20:31;;;;;;;5.90;3.53;;;;;;;6.01;nan;101184.25;4993086;28;20432;-76
2021/11/17 09:22:57;;;;;;;4.40;2.90;;;;;;;6.02;nan;101184.13;4991406;28;20121;-76
2021/11/17 09:25:24;;;;;;;5.78;3.20;;;;;;;5.95;nan;101188.13;4992030;28;20097;-76
2021/11/17 09:27:50;;;;;;;5.22;2.95;;;;;;;5.85;nan;101189.66;4992232;28;20261;-76
2021/11/17 09:30:19;;;;;;;6.05;2.95;;;;;;;5.82;nan;101179.41;4991857;28;20093;-76
2021/11/17 09:32:47;;;;;;;4.40;2.70;;;;;;;5.89;nan;101184.13;5000238;28;20400;-76
2021/11/17 09:35:14;;;;;;;4.72;2.80;;;;;;;5.91;nan;101176.09;4995343;28;20037;-76
2021/11/17 09:37:43;;;;;;;4.13;2.63;;;;;;;5.97;nan;101180.16;5000443;28;20038;-76
2021/11/17 09:40:11;;;;;;;4.10;2.50;;;;;;;5.99;nan;101175.63;4990098;28;20039;-76
2021/11/17 09:42:37;;;;;;;4.45;3.13;;;;;;;6.01;nan;101186.88;4999003;28;20041;-76
2021/11/17 09:45:04;;;;;;;3.83;2.47;;;;;;;6.10;nan;101188.84;4993495;28;20396;-76
2021/11/17 09:47:33;;;;;;;5.15;2.50;;;;;;;6.21;nan;101181.06;4990158;28;20038;-76
2021/11/17 09:50:25;;;;;;;4.13;2.42;;;;;;;6.24;nan;101187.88;4997473;28;20029;-76
2021/11/17 09:53:18;;;;;;;4.95;2.92;;;;;;;6.20;nan;101191.66;4979283;28;20030;-76
2021/11/17 09:56:07;;;;;;;4.35;2.80;;;;;;;6.24;nan;101201.84;4992314;28;20478;-76
2021/11/17 09:58:39;;;;;;;5.60;3.20;;;;;;;6.23;nan;101189.69;4987217;28;20039;-77
2021/11/17 10:01:24;;;;;;;5.82;3.50;;;;;;;6.10;nan;101192.31;4991704;28;20030;-76
2021/11/17 10:04:16;;;;;;;7.95;3.50;;;;;;;6.12;nan;101195.66;4992188;28;20034;-76
2021/11/17 10:12:51;;;;;;;5.75;3.67;;;;;;;6.27;nan;101211.28;5001332;28;20287;-77
2021/11/17 10:15:22;;;;;;;7.88;4.47;;;;;;;6.30;nan;101211.94;4989009;28;20439;-76
2021/11/17 10:17:57;;;;;;;6.63;4.63;;;;;;;6.28;nan;101210.38;4991886;28;20038;-76
2021/11/17 10:20:26;;;;;;;6.75;4.25;;;;;;;6.29;nan;101204.16;4991131;28;20273;-76
2021/11/17 10:23:06;;;;;;;6.78;4.10;;;;;;;6.22;nan;101201.16;4991545;28;20027;-76
2021/11/17 10:26:06;;;;;;;7.60;4.22;;;;;;;6.25;nan;101208.78;4990806;28;20452;-76
2021/11/17 10:28:47;;;;;;;6.47;3.85;;;;;;;6.30;nan;101203.22;4985931;28;20039;-76
2021/11/17 10:31:30;;;;;;;7.85;3.90;;;;;;;6.18;nan;101202.28;4990845;28;20034;-76
2021/11/17 10:34:11;;;;;;;6.75;3.88;;;;;;;6.23;nan;101204.59;4998560;28;20424;-76
2021/11/17 10:36:49;;;;;;;7.03;3.90;;;;;;;6.21;nan;101206.50;4993863;28;20114;-76
2021/11/17 10:39:20;;;;;;;5.70;3.67;;;;;;;6.36;nan;101205.41;4991818;28;20398;-76
2021/11/17 10:42:04;;;;;;;5.78;3.70;;;;;;;6.40;nan;101221.81;4991626;28;20598;-76
2021/11/17 10:44:35;;;;;;;6.75;3.55;;;;;;;6.38;nan;101227.16;4988890;28;20054;-76
2021/11/17 10:47:06;;;;;;;7.43;4.32;;;;;;;6.37;nan;101228.94;4999826;28;20029;-77
2021/11/17 10:49:34;;;;;;;6.50;4.07;;;;;;;6.54;nan;101221.66;4989821;28;20038;-77
2021/11/17 10:52:07;;;;;;;6.63;3.85;;;;;;;6.76;nan;101223.59;4995661;28;20439;-76
2021/11/17 10:54:43;;;;;;;6.65;4.28;;;;;;;6.84;nan;101215.16;4985389;28;20256;-77
2021/11/17 10:57:12;;;;;;;6.10;4.13;;;;;;;6.95;nan;101215.22;4988861;28;20046;-77
2021/11/17 10:59:39;;;;;;;5.35;2.78;;;;;;;7.05;nan;101215.41;4992078;28;20262;-77
2021/11/17 11:02:09;;;;;;;6.22;3.40;;;;;;;7.05;nan;101213.59;4990680;28;20402;-76
2021/11/17 11:04:40;;;;;;;4.95;2.97;;;;;;;7.08;nan;101216.03;4990486;28;20482;-75
2021/11/17 11:07:27;;;;;;;5.77;3.00;;;;;;;7.04;nan;101209.31;4990409;28;20530;-77
2021/11/17 11:09:58;;;;;;;5.32;2.90;;;;;;;7.08;nan;101210.78;4990952;28;20039;-76
2021/11/17 11:12:27;;;;;;;4.53;2.90;;;;;;;7.08;nan;101208.13;4988173;28;20042;-77
2021/11/17 11:15:13;;;;;;;4.22;2.40;;;;;;;7.10;nan;101218.53;4998724;28;20414;-77
2021/11/17 11:18:06;;;;;;;4.65;2.40;;;;;;;7.08;nan;101220.44;4993043;28;20030;-77
2021/11/17 11:20:43;;;;;;;3.65;2.65;;;;;;;6.97;nan;101219.44;4984694;28;20042;-77
2021/11/17 11:23:23;;;;;;;4.25;2.53;;;;;;;7.06;nan;101230.25;4990001;28;20392;-77
2021/11/17 11:26:15;;;;;;;3.92;2.45;;;;;;;6.97;nan;101224.69;4997032;28;20037;-77
2021/11/17 11:28:46;;;;;;;;;;;;;;;6.94;nan;101230.16;4990393;28;20038;-77
2021/11/17 11:31:11;;;;;;;5.03;2.60;;;;;;;6.85;nan;101225.56;4982343;28;20314;-77
2021/11/17 11:33:37;;;;;;;3.72;2.50;;;;;;;6.84;nan;101230.94;4997988;28;20076;-75
2021/11/17 11:36:11;;;;;;;3.65;2.42;;;;;;;6.77;nan;101230.56;4997378;28;20046;-76
2021/11/17 11:38:38;;;;;;;4.68;2.70;;;;;;;6.74;nan;101239.47;4989208;28;20050;-76
2021/11/17 11:41:06;;;;;;;3.83;2.42;;;;;;;6.81;nan;101234.63;4990888;28;20107;-76
2021/11/17 11:43:33;;;;;;;3.38;2.20;;;;;;;6.88;nan;101229.78;4988782;28;20066;-76
2021/11/17 11:46:22;;;;;;;2.90;1.90;;;;;;;6.96;nan;101227.41;4989482;28;20060;-76
2021/11/17 11:49:05;;;;;;;4.00;2.08;;;;;;;6.95;nan;101226.59;4990257;28;20110;-76
2021/11/17 11:51:45;;;;;;;3.75;2.05;;;;;;;7.07;nan;101210.88;5000459;28;20035;-76
2021/11/17 11:54:31;;;;;;;4.13;2.47;;;;;;;7.33;nan;101201.06;4987490;28;20060;-76
2021/11/17 11:57:02;;;;;;;3.53;1.95;;;;;;;7.32;nan;101202.84;4990405;28;20049;-76
2021/11/17 11:59:30;;;;;;;3.60;2.08;;;;;;;7.49;nan;101198.13;4989929;28;20043;-76
2021/11/17 12:02:27;;;;;;;3.08;2.08;;;;;;;7.43;nan;101194.16;4988516;28;20206;-77
2021/11/17 12:04:59;;;;;;;6.40;2.15;;;;;;;7.59;nan;101189.41;4977840;28;20384;-76
2021/11/17 12:07:47;;;;;;;4.15;2.40;;;;;;;7.58;nan;101182.47;4995695;28;20506;-76
2021/11/17 12:10:21;;;;;;;3.30;2.08;;;;;;;7.52;nan;101184.72;4973874;28;20049;-76
2021/11/17 12:12:46;;;;;;;3.10;2.00;;;;;;;7.60;nan;101182.34;4991053;28;20121;-76
2021/11/17 12:15:23;;;;;;;4.28;2.55;;;;;;;7.44;nan;101164.25;4990044;28;20130;-76
2021/11/17 12:18:13;;;;;;;3.35;2.45;;;;;;;7.25;nan;101172.69;4987062;28;20034;-76
2021/11/17 12:21:01;;;;;;;3.55;2.58;;;;;;;7.30;nan;101170.56;4997176;28;20038;-76
2021/11/17 12:23:32;;;;;;;5.07;2.58;;;;;;;7.37;nan;101187.56;4983702;28;20315;-76
2021/11/17 12:26:08;;;;;;;3.45;2.40;;;;;;;7.53;nan;101187.25;4996148;28;20038;-76
2021/11/17 12:28:40;;;;;;;4.47;2.60;;;;;;;7.63;nan;101193.50;4989238;28;20105;-76
2021/11/17 12:31:09;;;;;;;3.70;2.05;;;;;;;7.73;nan;101201.53;4989397;28;20052;-76
2021/11/17 12:33:48;;;;;;;3.53;2.38;;;;;;;7.73;nan;101188.38;4997833;28;20121;-76
2021/11/17 12:36:20;;;;;;;5.03;2.20;;;;;;;7.76;nan;101196.03;4996590;28;20030;-76
2021/11/17 12:38:46;;;;;;;4.38;2.00;;;;;;;7.86;nan;101191.75;4988062;28;20031;-76
2021/11/17 12:41:22;;;;;;;2.83;2.10;;;;;;;7.74;nan;101207.63;4989859;28;20557;-76
2021/11/17 12:44:03;;;;;;;2.72;2.00;;;;;;;7.91;nan;101217.69;4989142;28;20034;-76
2021/11/17 12:46:34;;;;;;;3.60;2.05;;;;;;;7.93;nan;101218.44;4989286;28;20053;-76
2021/11/17 12:49:13;;;;;;;;;;;;;;;7.91;nan;101215.06;4989284;28;20201;-77
2021/11/17 12:51:48;;;;;;;4.57;2.60;;;;;;;7.97;nan;101205.88;4983764;28;20013;-76
2021/11/17 12:54:46;;;;;;;5.55;2.60;;;;;;;7.83;nan;101210.41;4981602;28;20093;-76
2021/11/17 12:57:18;;;;;;;4.07;2.47;;;;;;;7.86;nan;101207.56;4989063;28;20093;-76
2021/11/17 12:59:54;;;;;;;3.05;2.00;;;;;;;7.86;nan;101204.91;5001214;28;20038;-76
2021/11/17 13:02:22;;;;;;;4.15;2.20;;;;;;;7.95;nan;101203.34;4985857;28;20113;-76
2021/11/17 13:04:51;;;;;;;3.85;2.13;;;;;;;7.93;nan;101200.00;5004137;28;20415;-76
2021/11/17 13:07:42;;;;;;;2.90;2.38;;;;;;;7.99;nan;101206.59;4993100;28;20034;-76
2021/11/17 13:10:08;;;;;;;3.30;1.90;;;;;;;7.92;nan;101210.66;5000382;28;20038;-76
2021/11/17 13:12:36;;;;;;;2.38;1.75;;;;;;;7.94;nan;101208.75;4991569;28;20064;-76
2021/11/17 13:15:04;;;;;;;2.75;2.03;;;;;;;8.00;nan;101214.38;5000302;28;20026;-76
2021/11/17 13:17:33;;;;;;;3.00;2.10;;;;;;;7.98;nan;101215.44;5000515;28;20123;-76
2021/11/17 13:20:13;;;;;;;3.67;2.50;;;;;;;8.00;nan;101224.06;4994081;28;20122;-76
2021/11/17 13:22:54;;;;;;;3.10;2.00;;;;;;;7.98;nan;101216.28;4993596;28;20038;-76
2021/11/17 13:25:22;;;;;;;4.97;2.50;;;;;;;8.11;nan;101215.34;4995879;28;20099;-76
2021/11/17 13:27:50;;;;;;;3.50;2.10;;;;;;;8.08;nan;101219.91;5000755;28;20038;-76
2021/11/17 13:30:38;;;;;;;4.00;2.65;;;;;;;8.08;nan;101217.25;4998770;28;20042;-76
2021/11/17 13:33:36;;;;;;;4.18;2.40;;;;;;;7.96;nan;101217.34;4992325;28;20065;-77
2021/11/17 13:36:01;;;;;;;3.33;2.20;;;;;;;8.06;nan;101234.16;4953716;28;20221;-77
2021/11/17 13:38:28;;;;;;;4.77;2.50;;;;;;;8.05;nan;101227.19;4997373;28;20038;-77
2021/11/17 13:40:58;;;;;;;4.68;2.47;;;;;;;7.88;nan;101226.69;4993248;28;20269;-76
2021/11/17 13:43:25;;;;;;;4.47;2.65;;;;;;;7.76;nan;101224.97;4998092;28;20035;-76
2021/11/17 13:45:54;;;;;;;4.03;2.38;;;;;;;7.76;nan;101222.34;4989952;28;20053;-76
2021/11/17 13:48:29;;;;;;;5.05;2.78;;;;;;;7.88;nan;101225.84;4999433;28;20026;-76
2021/11/17 13:50:56;;;;;;;5.65;3.35;;;;;;;7.82;nan;101231.59;4997300;28;20034;-76
2021/11/17 13:53:23;;;;;;;3.97;2.58;;;;;;;7.80;nan;101228.25;4991577;28;20034;-76
2021/11/17 13:56:05;;;;;;;5.53;2.75;;;;;;;7.78;nan;101223.06;4992039;28;20034;-76
2021/11/17 13:58:31;;;;;;;4.32;2.58;;;;;;;7.74;nan;101231.31;5000189;28;20058;-76
2021/11/17 14:00:57;;;;;;;4.00;2.55;;;;;;;7.79;nan;101226.53;4991259;28;20034;-77
2021/11/17 14:03:22;;;;;;;4.07;2.50;;;;;;;7.81;nan;101230.72;4990786;28;20515;-76
2021/11/17 14:05:49;;;;;;;4.55;2.58;;;;;;;7.59;nan;101233.31;4992741;28;20070;-76
2021/11/17 14:08:15;;;;;;;3.85;2.20;;;;;;;7.67;nan;101230.94;4992057;28;20034;-76
2021/11/17 14:10:41;;;;;;;5.25;2.53;;;;;;;7.76;nan;101224.97;4991189;28;20027;-76
2021/11/17 14:13:07;;;;;;;4.38;2.38;;;;;;;7.69;nan;101228.19;4992356;28;20061;-77
2021/11/17 14:15:34;;;;;;;3.63;2.30;;;;;;;7.65;nan;101222.31;4998816;28;20415;-76
2021/11/17 14:18:00;;;;;;;4.75;2.47;;;;;;;7.70;nan;101221.97;4993625;28;20104;-77
2021/11/17 14:20:26;;;;;;;4.68;2.40;;;;;;;7.58;nan;101221.09;4990007;28;20031;-76
2021/11/17 14:22:53;;;;;;;5.25;2.88;;;;;;;7.60;nan;101227.97;4991606;28;20090;-76
2021/11/17 14:25:20;;;;;;;4.03;2.30;;;;;;;7.50;nan;101232.22;4991517;28;20042;-76
2021/11/17 14:27:54;;;;;;;6.00;2.80;;;;;;;7.52;nan;101240.00;4992461;28;20490;-76
2021/11/17 14:30:57;;;;;;;3.53;2.38;;;;;;;7.54;nan;101236.28;4998067;28;20045;-77
2021/11/17 14:33:26;;;;;;;3.65;2.22;;;;;;;7.64;nan;101239.06;4984640;28;20616;-76
2021/11/17 14:35:53;;;;;;;4.60;2.50;;;;;;;7.67;nan;101236.19;5002385;28;20061;-76
2021/11/17 14:38:20;;;;;;;5.53;2.90;;;;;;;7.69;nan;101238.72;4993378;28;20033;-76
2021/11/17 14:40:48;;;;;;;5.18;2.95;;;;;;;7.68;nan;101237.06;4991296;28;20034;-76
2021/11/17 14:43:16;;;;;;;4.65;2.55;;;;;;;7.59;nan;101236.78;4991941;28;20037;-76
2021/11/17 14:45:41;;;;;;;5.18;2.83;;;;;;;7.63;nan;101232.16;4991789;28;20070;-76
2021/11/17 14:48:07;;;;;;;5.15;3.22;;;;;;;7.60;nan;101232.34;4999418;28;20509;-76
2021/11/17 14:50:32;;;;;;;6.95;3.10;;;;;;;7.59;nan;101239.41;4997143;28;20030;-76
2021/11/17 14:52:57;;;;;;;4.75;2.80;;;;;;;7.53;nan;101239.03;4990229;28;20084;-76